createdAt,value
2022-09-15T00:01:13.042Z,83.90
2022-09-15T00:03:41.146Z,83.72
2022-09-15T00:06:09.639Z,84.08
2022-09-15T00:08:37.814Z,83.83
2022-09-15T00:11:05.991Z,84.12
2022-09-15T00:13:35.259Z,84.13
2022-09-15T00:16:03.795Z,84.44
2022-09-15T00:18:34.503Z,85.70
2022-09-15T00:21:07.336Z,85.82
2022-09-15T00:23:39.349Z,85.75
2022-09-15T00:26:09.553Z,86.78
2022-09-15T00:28:38.610Z,87.39
2022-09-15T00:31:08.917Z,87.62
2022-09-15T00:33:39.099Z,87.58
2022-09-15T00:36:09.389Z,87.87
2022-09-15T00:38:38.117Z,87.41
2022-09-15T00:41:07.122Z,87.28
2022-09-15T00:43:43.525Z,87.09
2022-09-15T00:46:11.459Z,87.38
2022-09-15T00:48:44.695Z,86.59
2022-09-15T00:51:15.927Z,87.77
2022-09-15T00:53:47.338Z,87.28
2022-09-15T00:56:16.430Z,87.91
2022-09-15T00:58:57.031Z,87.41
2022-09-15T01:01:31.032Z,87.36
2022-09-15T01:03:59.382Z,87.22
2022-09-15T01:06:36.422Z,87.81
2022-09-15T01:09:17.658Z,88.30
2022-09-15T01:11:47.757Z,88.94
2022-09-15T01:14:18.352Z,88.50
2022-09-15T01:17:06.912Z,88.60
2022-09-15T01:19:40.085Z,89.15
2022-09-15T01:22:22.785Z,89.44
2022-09-15T01:25:35.223Z,90.07
2022-09-15T01:28:30.282Z,90.34
2022-09-15T01:31:07.765Z,90.42
2022-09-15T01:33:37.634Z,90.23
2022-09-15T01:36:18.173Z,90.58
2022-09-15T01:38:48.772Z,90.69
2022-09-15T01:41:27.286Z,90.40
2022-09-15T01:43:58.144Z,89.49
2022-09-15T01:46:27.947Z,89.80
2022-09-15T01:49:01.749Z,89.94
2022-09-15T01:51:31.730Z,90.19
2022-09-15T01:54:01.832Z,90.22
2022-09-15T01:56:29.737Z,89.78
2022-09-15T01:58:59.718Z,89.96
2022-09-15T02:01:47.153Z,89.57
2022-09-15T02:04:23.923Z,89.72
2022-09-15T02:07:12.741Z,89.94
2022-09-15T02:10:05.730Z,90.01
2022-09-15T02:13:00.526Z,90.13
2022-09-15T02:15:36.856Z,89.90
2022-09-15T02:18:08.582Z,90.37
2022-09-15T02:20:38.927Z,90.45
2022-09-15T02:23:10.906Z,90.73
2022-09-15T02:25:43.840Z,90.72
2022-09-15T02:28:14.887Z,90.73
2022-09-15T02:30:45.438Z,90.92
2022-09-15T02:33:19.746Z,90.62
2022-09-15T02:35:49.891Z,91.21
2022-09-15T02:38:17.512Z,91.26
2022-09-15T02:40:45.977Z,91.42
2022-09-15T02:43:23.382Z,91.14
2022-09-15T02:45:51.197Z,91.14
2022-09-15T02:48:18.890Z,91.13
2022-09-15T02:50:46.362Z,90.99
2022-09-15T02:53:16.002Z,90.71
2022-09-15T02:55:43.629Z,90.16
2022-09-15T02:58:11.147Z,90.06
2022-09-15T03:00:40.848Z,89.77
2022-09-15T03:03:10.853Z,89.37
2022-09-15T03:05:38.372Z,88.96
2022-09-15T03:08:05.977Z,88.81
2022-09-15T03:10:35.861Z,88.39
2022-09-15T03:13:05.472Z,88.37
2022-09-15T03:15:33.339Z,88.05
2022-09-15T03:18:02.963Z,87.65
2022-09-15T03:20:30.482Z,87.70
2022-09-15T03:22:57.980Z,87.94
2022-09-15T03:25:28.124Z,88.16
2022-09-15T03:27:55.630Z,88.44
2022-09-15T03:30:23.117Z,88.72
2022-09-15T03:32:50.608Z,88.76
2022-09-15T03:35:18.218Z,88.85
2022-09-15T03:37:45.831Z,88.84
2022-09-15T03:40:13.436Z,89.04
2022-09-15T03:42:41.454Z,89.14
2022-09-15T03:45:09.255Z,88.97
2022-09-15T03:47:38.147Z,89.05
2022-09-15T03:50:10.874Z,89.09
2022-09-15T03:52:40.838Z,89.12
2022-09-15T03:55:08.657Z,89.00
2022-09-15T03:57:36.137Z,89.25
2022-09-15T04:00:06.152Z,89.30
2022-09-15T04:02:33.902Z,89.51
2022-09-15T04:05:02.879Z,89.25
2022-09-15T04:07:30.471Z,89.22
2022-09-15T04:09:57.967Z,88.52
2022-09-15T04:12:28.191Z,87.61
2022-09-15T04:14:55.696Z,86.96
2022-09-15T04:17:23.228Z,86.52
2022-09-15T04:19:50.897Z,86.15
2022-09-15T04:22:18.386Z,85.81
2022-09-15T04:24:48.002Z,85.87
2022-09-15T04:27:18.974Z,85.44
2022-09-15T04:29:47.604Z,85.45
2022-09-15T04:32:15.173Z,85.32
2022-09-15T04:34:45.418Z,85.23
2022-09-15T04:37:13.066Z,85.17
2022-09-15T04:39:40.568Z,85.18
2022-09-15T04:42:08.135Z,85.37
2022-09-15T04:44:35.761Z,85.09
2022-09-15T04:47:03.349Z,85.36
2022-09-15T04:49:31.751Z,85.40
2022-09-15T04:51:59.286Z,85.40
2022-09-15T04:54:27.000Z,85.90
2022-09-15T04:56:54.532Z,85.76
2022-09-15T04:59:22.181Z,85.97
2022-09-15T05:01:56.052Z,86.04
2022-09-15T05:04:23.593Z,86.31
2022-09-15T05:06:51.275Z,86.42
2022-09-15T05:09:18.867Z,86.48
2022-09-15T05:11:46.426Z,86.71
2022-09-15T05:14:13.945Z,86.89
2022-09-15T05:16:41.502Z,87.06
2022-09-15T05:19:11.028Z,87.38
2022-09-15T05:21:38.680Z,87.23
2022-09-15T05:24:06.409Z,87.49
2022-09-15T05:26:36.568Z,87.62
2022-09-15T05:29:04.559Z,87.64
2022-09-15T05:31:35.405Z,88.13
2022-09-15T05:34:05.372Z,88.24
2022-09-15T05:36:33.969Z,88.94
2022-09-15T05:39:01.865Z,88.75
2022-09-15T05:41:30.375Z,88.41
2022-09-15T05:43:59.030Z,89.24
2022-09-15T05:46:30.140Z,88.78
2022-09-15T05:48:59.043Z,88.81
2022-09-15T05:51:28.166Z,88.69
2022-09-15T05:53:57.869Z,88.77
2022-09-15T05:56:27.813Z,88.76
2022-09-15T05:58:58.396Z,88.60
2022-09-15T06:01:31.583Z,88.42
2022-09-15T06:04:02.181Z,87.81
2022-09-15T06:06:33.116Z,87.62
2022-09-15T06:09:06.594Z,87.64
2022-09-15T06:11:34.524Z,87.30
2022-09-15T06:14:06.027Z,87.04
2022-09-15T06:16:37.601Z,86.98
2022-09-15T06:19:05.276Z,87.07
2022-09-15T06:21:34.349Z,86.89
2022-09-15T06:24:07.494Z,86.78
2022-09-15T06:26:35.620Z,86.60
2022-09-15T06:29:06.400Z,86.48
2022-09-15T06:31:37.130Z,86.19
2022-09-15T06:34:05.390Z,86.26
2022-09-15T06:36:33.892Z,85.90
2022-09-15T06:39:01.546Z,85.84
2022-09-15T06:41:47.093Z,85.70
2022-09-15T06:44:22.004Z,85.55
2022-09-15T06:46:49.755Z,85.22
2022-09-15T06:49:17.543Z,85.48
2022-09-15T06:51:45.071Z,85.67
2022-09-15T06:54:12.897Z,85.66
2022-09-15T06:56:40.377Z,85.75
2022-09-15T06:59:07.889Z,85.52
2022-09-15T07:01:36.434Z,85.30
2022-09-15T07:04:08.374Z,84.94
2022-09-15T07:06:39.337Z,84.68
2022-09-15T07:09:07.950Z,84.48
2022-09-15T07:11:35.689Z,84.67
2022-09-15T07:14:03.605Z,84.30
2022-09-15T07:16:31.625Z,83.87
2022-09-15T07:19:06.113Z,83.43
2022-09-15T07:21:34.666Z,82.34
2022-09-15T07:24:06.831Z,80.29
2022-09-15T07:26:35.334Z,77.22
2022-09-15T07:29:05.363Z,73.38
2022-09-15T07:31:36.133Z,68.40
2022-09-15T07:34:04.361Z,64.87
2022-09-15T07:36:32.518Z,61.53
2022-09-15T07:39:00.095Z,59.02
2022-09-15T07:41:29.739Z,57.31
2022-09-15T07:43:59.184Z,59.36
2022-09-15T07:46:30.325Z,62.13
2022-09-15T07:48:58.125Z,64.00
2022-09-15T07:51:26.907Z,64.18
2022-09-15T07:53:54.985Z,65.44
2022-09-15T07:56:25.303Z,65.39
2022-09-15T07:58:53.158Z,64.78
2022-09-15T08:01:22.531Z,65.84
2022-09-15T08:03:52.558Z,65.85
2022-09-15T08:06:26.486Z,67.06
2022-09-15T08:08:59.306Z,65.41
2022-09-15T08:11:30.551Z,64.74
2022-09-15T08:14:02.346Z,62.76
2022-09-15T08:16:31.321Z,57.70
2022-09-15T08:18:58.897Z,54.70
2022-09-15T08:21:27.608Z,53.68
2022-09-15T08:23:59.193Z,49.66
2022-09-15T08:26:28.783Z,50.50
2022-09-15T08:28:56.301Z,48.91
2022-09-15T08:31:25.197Z,52.41
2022-09-15T08:33:55.668Z,52.35
2022-09-15T08:36:24.571Z,51.21
2022-09-15T08:38:52.202Z,49.73
2022-09-15T08:41:31.886Z,49.97
2022-09-15T08:44:11.868Z,48.46
2022-09-15T08:46:44.379Z,46.46
2022-09-15T08:49:50.118Z,44.90
2022-09-15T08:52:25.306Z,45.88
2022-09-15T08:54:58.109Z,46.03
2022-09-15T08:57:27.297Z,44.25
2022-09-15T08:59:55.785Z,43.44
2022-09-15T09:03:11.416Z,42.13
2022-09-15T09:06:15.264Z,41.36
2022-09-15T09:09:21.222Z,40.94
2022-09-15T09:12:33.558Z,38.54
2022-09-15T09:15:35.712Z,37.62
2022-09-15T09:18:21.336Z,35.92
2022-09-15T09:21:20.835Z,36.47
2022-09-15T09:23:55.794Z,36.47
2022-09-15T09:26:23.429Z,34.82
2022-09-15T09:28:59.929Z,36.84
2022-09-15T09:31:31.521Z,34.73
2022-09-15T09:34:30.285Z,33.49
2022-09-15T09:37:09.470Z,33.41
2022-09-15T09:39:37.288Z,33.22
2022-09-15T09:42:09.157Z,33.16
2022-09-15T09:44:37.556Z,32.00
2022-09-15T09:47:05.152Z,33.45
2022-09-15T09:49:39.733Z,33.96
2022-09-15T09:52:07.884Z,35.17
2022-09-15T09:54:35.695Z,34.40
2022-09-15T09:57:15.509Z,35.04
2022-09-15T09:59:53.236Z,36.00
2022-09-15T10:02:28.750Z,36.40
2022-09-15T10:05:06.836Z,37.32
2022-09-15T10:07:35.457Z,37.83
2022-09-15T10:10:04.480Z,38.46
2022-09-15T10:12:41.606Z,39.00
2022-09-15T10:15:24.264Z,40.16
2022-09-15T10:17:55.618Z,41.34
2022-09-15T10:20:34.255Z,41.67
2022-09-15T10:23:28.112Z,42.41
2022-09-15T10:26:00.228Z,42.39
2022-09-15T10:28:29.224Z,42.69
2022-09-15T10:30:59.146Z,41.21
2022-09-15T10:33:30.298Z,40.45
2022-09-15T10:36:04.142Z,38.29
2022-09-15T10:38:39.374Z,35.97
2022-09-15T10:41:23.066Z,36.70
2022-09-15T10:44:00.419Z,38.04
2022-09-15T10:46:57.980Z,39.56
2022-09-15T10:49:43.102Z,40.66
2022-09-15T10:52:16.079Z,42.28
2022-09-15T10:55:36.811Z,43.35
2022-09-15T10:58:16.520Z,43.72
2022-09-15T11:01:02.524Z,44.04
2022-09-15T11:03:42.332Z,43.96
2022-09-15T11:06:26.591Z,43.82
2022-09-15T11:09:20.820Z,44.34
2022-09-15T11:12:17.066Z,44.68
2022-09-15T11:14:51.697Z,45.27
2022-09-15T11:17:35.735Z,45.55
2022-09-15T11:20:27.684Z,46.10
2022-09-15T11:23:18.534Z,45.46
2022-09-15T11:26:10.923Z,48.50
2022-09-15T11:29:07.814Z,49.96
2022-09-15T11:31:41.124Z,52.33
2022-09-15T11:34:33.243Z,54.00
2022-09-15T11:37:10.967Z,54.67
2022-09-15T11:39:52.070Z,56.84
2022-09-15T11:42:45.380Z,56.70
2022-09-15T11:45:25.749Z,57.75
2022-09-15T11:48:06.203Z,57.03
2022-09-15T11:50:36.161Z,57.51
2022-09-15T11:53:18.216Z,57.06
2022-09-15T11:55:58.149Z,57.20
2022-09-15T11:59:22.143Z,56.84
2022-09-15T12:02:02.431Z,56.34
2022-09-15T12:04:35.473Z,56.09
2022-09-15T12:07:26.445Z,56.52
2022-09-15T12:09:54.389Z,57.60
2022-09-15T12:12:26.967Z,58.73
2022-09-15T12:14:59.119Z,59.32
2022-09-15T12:17:41.077Z,60.15
2022-09-15T12:20:19.059Z,60.55
2022-09-15T12:23:12.854Z,60.76
2022-09-15T12:26:01.477Z,61.69
2022-09-15T12:28:42.703Z,61.32
2022-09-15T12:31:16.018Z,61.26
2022-09-15T12:33:43.542Z,61.15
2022-09-15T12:36:39.372Z,60.76
2022-09-15T12:39:24.711Z,60.65
2022-09-15T12:41:56.826Z,60.32
2022-09-15T12:44:38.559Z,59.58
2022-09-15T12:47:17.023Z,59.62
2022-09-15T12:49:49.438Z,59.97
2022-09-15T12:52:20.747Z,60.27
2022-09-15T12:54:55.615Z,60.84
2022-09-15T12:57:27.918Z,61.86
2022-09-15T13:00:31.072Z,62.99
2022-09-15T13:02:59.176Z,64.95
2022-09-15T13:05:46.701Z,67.02
2022-09-15T13:08:30.388Z,76.73
2022-09-15T13:11:28.533Z,83.93
2022-09-15T13:14:41.972Z,88.41
2022-09-15T13:17:18.613Z,92.94
2022-09-15T13:19:52.644Z,91.80
2022-09-15T13:22:36.822Z,94.02
2022-09-15T13:25:14.530Z,94.08
2022-09-15T13:27:50.910Z,94.21
2022-09-15T13:30:45.490Z,94.27
2022-09-15T13:33:16.817Z,93.65
2022-09-15T13:35:53.296Z,94.95
2022-09-15T13:38:34.057Z,93.21
2022-09-15T13:41:24.850Z,92.83
2022-09-15T13:44:22.650Z,95.94
2022-09-15T13:47:02.195Z,99.01
2022-09-15T13:49:41.635Z,98.69
2022-09-15T13:52:09.134Z,98.02
2022-09-15T13:54:36.888Z,98.15
2022-09-15T13:57:05.034Z,97.11
2022-09-15T13:59:34.773Z,98.42
2022-09-15T14:02:02.548Z,98.92
2022-09-15T14:04:33.190Z,96.88
2022-09-15T14:07:04.234Z,98.92
2022-09-15T14:09:34.243Z,99.48
2022-09-15T14:12:11.421Z,100.00
2022-09-15T14:14:58.643Z,98.06
2022-09-15T14:17:28.810Z,98.05
2022-09-15T14:20:01.030Z,99.42
2022-09-15T14:22:29.992Z,98.81
2022-09-15T14:24:59.317Z,98.78
2022-09-15T14:27:30.204Z,98.92
2022-09-15T14:30:02.577Z,100.00
2022-09-15T14:32:35.295Z,100.00
2022-09-15T14:35:08.550Z,100.00
2022-09-15T14:37:36.601Z,100.00
2022-09-15T14:40:19.281Z,100.00
2022-09-15T14:42:46.936Z,100.00
2022-09-15T14:48:09.835Z,100.00
2022-09-15T14:50:38.048Z,100.00
2022-09-15T14:53:08.820Z,100.00
2022-09-15T14:56:07.691Z,100.00
2022-09-15T14:58:47.550Z,100.00
2022-09-15T15:01:21.922Z,100.00
2022-09-15T15:04:10.441Z,100.00
2022-09-15T15:06:47.296Z,100.00
2022-09-15T15:09:26.110Z,100.00
2022-09-15T15:12:00.525Z,100.00
2022-09-15T15:14:31.304Z,100.00
2022-09-15T15:17:06.069Z,100.00
2022-09-15T15:19:41.836Z,100.00
2022-09-15T15:22:20.102Z,100.00
2022-09-15T15:24:50.298Z,100.00
2022-09-15T15:27:44.283Z,100.00
2022-09-15T15:30:30.720Z,100.00
2022-09-15T15:33:04.397Z,100.00
2022-09-15T15:35:34.041Z,100.00
2022-09-15T15:38:12.847Z,100.00
2022-09-15T15:40:44.885Z,100.00
2022-09-15T15:43:26.697Z,100.00
2022-09-15T15:46:01.245Z,100.00
2022-09-15T15:48:36.882Z,100.00
2022-09-15T15:51:07.313Z,100.00
2022-09-15T15:53:35.643Z,100.00
2022-09-15T15:56:03.426Z,100.00
2022-09-15T15:58:31.736Z,100.00
2022-09-15T16:00:59.269Z,100.00
2022-09-15T16:03:29.042Z,100.00
2022-09-15T16:06:00.606Z,100.00
2022-09-15T16:08:46.250Z,100.00
2022-09-15T16:11:17.147Z,100.00
2022-09-15T16:13:44.688Z,100.00
2022-09-15T16:16:24.494Z,100.00
2022-09-15T16:18:52.385Z,100.00
2022-09-15T16:21:41.659Z,100.00
2022-09-15T16:24:16.644Z,100.00
2022-09-15T16:26:44.877Z,100.00
2022-09-15T16:29:14.882Z,100.00
2022-09-15T16:31:42.891Z,100.00
2022-09-15T16:34:18.055Z,100.00
2022-09-15T16:36:47.994Z,100.00
2022-09-15T16:39:15.494Z,100.00
2022-09-15T16:41:43.171Z,100.00
2022-09-15T16:44:21.911Z,100.00
2022-09-15T16:46:49.500Z,100.00
2022-09-15T16:49:17.445Z,100.00
2022-09-15T16:51:44.993Z,100.00
2022-09-15T16:54:18.401Z,100.00
2022-09-15T16:56:46.478Z,100.00
2022-09-15T16:59:14.088Z,100.00
2022-09-15T17:01:41.700Z,100.00
2022-09-15T17:04:19.098Z,100.00
2022-09-15T17:06:46.744Z,100.00
2022-09-15T17:09:14.559Z,100.00
2022-09-15T17:11:42.354Z,100.00
2022-09-15T17:14:16.308Z,100.00
2022-09-15T17:16:47.381Z,100.00
2022-09-15T17:19:17.505Z,100.00
2022-09-15T17:21:45.582Z,100.00
2022-09-15T17:24:15.263Z,100.00
2022-09-15T17:26:42.919Z,100.00
2022-09-15T17:29:10.545Z,100.00
2022-09-15T17:31:38.288Z,100.00
2022-09-15T17:34:11.059Z,100.00
2022-09-15T17:36:38.576Z,100.00
2022-09-15T17:39:06.137Z,100.00
2022-09-15T17:41:35.925Z,100.00
2022-09-15T17:44:03.534Z,100.00
2022-09-15T17:46:31.099Z,100.00
2022-09-15T17:48:58.647Z,100.00
2022-09-15T17:51:26.728Z,100.00
2022-09-15T17:53:54.953Z,100.00
2022-09-15T17:56:22.426Z,100.00
2022-09-15T17:58:49.946Z,100.00
2022-09-15T18:01:17.543Z,100.00
2022-09-15T18:03:46.834Z,100.00
2022-09-15T18:06:14.325Z,100.00
2022-09-15T18:08:41.916Z,100.00
2022-09-15T18:11:09.709Z,100.00
2022-09-15T18:13:37.803Z,100.00
2022-09-15T18:16:12.204Z,100.00
2022-09-15T18:18:45.013Z,100.00
2022-09-15T18:21:25.712Z,100.00
2022-09-15T18:23:53.214Z,100.00
2022-09-15T18:26:25.415Z,100.00
2022-09-15T18:28:54.282Z,100.00
2022-09-15T18:31:22.130Z,100.00
2022-09-15T18:33:49.710Z,100.00
2022-09-15T18:36:19.367Z,100.00
2022-09-15T18:38:46.866Z,100.00
2022-09-15T18:41:16.128Z,100.00
2022-09-15T18:43:49.036Z,100.00
2022-09-15T18:46:20.396Z,100.00
2022-09-15T18:48:48.160Z,100.00
2022-09-15T18:51:23.661Z,100.00
2022-09-15T18:53:54.696Z,100.00
2022-09-15T18:56:22.319Z,100.00
2022-09-15T18:58:53.717Z,100.00
2022-09-15T19:01:21.914Z,100.00
2022-09-15T19:03:49.491Z,100.00
2022-09-15T19:06:17.061Z,100.00
2022-09-15T19:08:44.624Z,100.00
2022-09-15T19:11:12.427Z,100.00
2022-09-15T19:13:39.966Z,100.00
2022-09-15T19:16:08.431Z,100.00
2022-09-15T19:18:39.073Z,100.00
2022-09-15T19:21:09.176Z,100.00
2022-09-15T19:23:37.198Z,100.00
2022-09-15T19:26:13.033Z,100.00
2022-09-15T19:28:41.665Z,100.00
2022-09-15T19:31:09.823Z,100.00
2022-09-15T19:33:37.901Z,100.00
2022-09-15T19:36:26.806Z,100.00
2022-09-15T19:38:55.385Z,100.00
2022-09-15T19:41:25.517Z,100.00
2022-09-15T19:43:53.199Z,100.00
2022-09-15T19:46:26.455Z,100.00
2022-09-15T19:48:55.230Z,100.00
2022-09-15T19:51:25.648Z,100.00
2022-09-15T19:53:57.499Z,100.00
2022-09-15T19:56:27.139Z,100.00
2022-09-15T19:58:56.786Z,100.00
2022-09-15T20:01:26.538Z,100.00
2022-09-15T20:03:55.959Z,100.00
2022-09-15T20:06:27.632Z,100.00
2022-09-15T20:08:59.025Z,100.00
2022-09-15T20:11:29.598Z,100.00
2022-09-15T20:13:57.382Z,100.00
2022-09-15T20:16:28.040Z,100.00
2022-09-15T20:18:56.996Z,100.00
2022-09-15T20:21:49.386Z,100.00
2022-09-15T20:24:18.070Z,100.00
2022-09-15T20:26:45.571Z,100.00
2022-09-15T20:29:15.543Z,100.00
2022-09-15T20:31:45.594Z,100.00
2022-09-15T20:34:13.377Z,100.00
2022-09-15T20:36:41.348Z,100.00
2022-09-15T20:39:14.611Z,100.00
2022-09-15T20:41:45.866Z,100.00
2022-09-15T20:44:13.906Z,100.00
2022-09-15T20:46:41.812Z,100.00
2022-09-15T20:49:09.905Z,100.00
2022-09-15T20:51:37.463Z,100.00
2022-09-15T20:54:05.817Z,100.00
2022-09-15T20:56:35.478Z,100.00
2022-09-15T20:59:10.382Z,100.00
2022-09-15T21:01:39.326Z,100.00
2022-09-15T21:04:08.931Z,100.00
2022-09-15T21:06:37.293Z,100.00
2022-09-15T21:09:05.398Z,100.00
2022-09-15T21:11:33.337Z,100.00
2022-09-15T21:14:00.878Z,100.00
2022-09-15T21:16:29.800Z,100.00
2022-09-15T21:18:58.982Z,100.00
2022-09-15T21:21:32.469Z,100.00
2022-09-15T21:24:03.841Z,100.00
2022-09-15T21:26:33.098Z,100.00
2022-09-15T21:29:05.366Z,100.00
2022-09-15T21:31:34.068Z,100.00
2022-09-15T21:34:01.762Z,100.00
2022-09-15T21:36:32.709Z,100.00
2022-09-15T21:39:02.897Z,100.00
2022-09-15T21:41:31.045Z,100.00
2022-09-15T21:43:59.324Z,100.00
2022-09-15T21:46:29.555Z,100.00
2022-09-15T21:48:58.806Z,100.00
2022-09-15T21:51:28.266Z,100.00
2022-09-15T21:53:57.770Z,100.00
2022-09-15T21:56:26.546Z,100.00
2022-09-15T21:58:54.309Z,100.00
2022-09-15T22:01:23.555Z,100.00
2022-09-15T22:03:56.173Z,100.00
2022-09-15T22:06:27.698Z,100.00
2022-09-15T22:08:55.738Z,100.00
2022-09-15T22:11:26.668Z,100.00
2022-09-15T22:13:55.692Z,100.00
2022-09-15T22:16:25.730Z,100.00
2022-09-15T22:18:53.772Z,100.00
2022-09-15T22:21:23.829Z,100.00
2022-09-15T22:23:52.831Z,100.00
2022-09-15T22:26:26.429Z,100.00
2022-09-15T22:28:54.426Z,100.00
2022-09-15T22:31:24.949Z,100.00
2022-09-15T22:33:53.704Z,100.00
2022-09-15T22:36:29.566Z,100.00
2022-09-15T22:39:04.408Z,100.00
2022-09-15T22:41:34.734Z,100.00
2022-09-15T22:44:02.610Z,100.00
2022-09-15T22:46:30.095Z,100.00
2022-09-15T22:48:57.961Z,100.00
2022-09-15T22:51:30.382Z,100.00
2022-09-15T22:53:58.463Z,100.00
2022-09-15T22:56:27.065Z,100.00
2022-09-15T22:58:55.294Z,100.00
2022-09-15T23:01:27.968Z,100.00
2022-09-15T23:03:59.970Z,100.00
2022-09-15T23:06:30.612Z,100.00
2022-09-15T23:09:00.557Z,100.00
2022-09-15T23:11:29.974Z,100.00
2022-09-15T23:13:57.603Z,100.00
2022-09-15T23:16:30.558Z,100.00
2022-09-15T23:18:58.435Z,100.00
2022-09-15T23:21:26.545Z,100.00
2022-09-15T23:23:55.176Z,100.00
2022-09-15T23:26:24.947Z,100.00
2022-09-15T23:28:52.755Z,100.00
2022-09-15T23:31:21.527Z,100.00
2022-09-15T23:33:50.012Z,100.00
2022-09-15T23:36:21.167Z,100.00
2022-09-15T23:38:49.989Z,100.00
2022-09-15T23:41:18.909Z,100.00
2022-09-15T23:43:47.199Z,100.00
2022-09-15T23:46:15.179Z,100.00
2022-09-15T23:48:43.051Z,100.00
2022-09-15T23:51:10.733Z,100.00
2022-09-15T23:53:40.633Z,100.00
2022-09-15T23:56:10.392Z,100.00
2022-09-15T23:58:38.189Z,100.00
